createdAt,value
2019-02-15T00:01:56.464Z,4.31
2019-02-15T00:04:26.835Z,4.29
2019-02-15T00:06:57.241Z,4.26
2019-02-15T00:09:27.800Z,4.20
2019-02-15T00:11:58.140Z,4.18
2019-02-15T00:14:28.493Z,4.15
2019-02-15T00:16:59.503Z,4.11
2019-02-15T00:19:42.079Z,4.08
2019-02-15T00:22:12.760Z,4.08
2019-02-15T00:24:43.137Z,4.09
2019-02-15T00:27:13.459Z,4.08
2019-02-15T00:29:43.781Z,4.04
2019-02-15T00:32:14.203Z,4.02
2019-02-15T00:34:44.476Z,3.99
2019-02-15T00:37:15.123Z,4.10
2019-02-15T00:39:45.538Z,4.14
2019-02-15T00:42:15.817Z,4.15
2019-02-15T00:44:46.417Z,4.15
2019-02-15T00:47:30.552Z,4.15
2019-02-15T00:50:25.866Z,4.19
2019-02-15T00:53:15.184Z,4.22
2019-02-15T00:56:10.196Z,4.25
2019-02-15T00:59:03.530Z,4.24
2019-02-15T01:01:58.981Z,4.21
2019-02-15T01:04:47.861Z,4.22
2019-02-15T01:07:36.397Z,4.26
2019-02-15T01:10:30.129Z,4.31
2019-02-15T01:13:05.034Z,4.39
2019-02-15T01:15:35.327Z,4.42
2019-02-15T01:18:05.633Z,4.42
2019-02-15T01:20:35.902Z,4.38
2019-02-15T01:23:06.201Z,4.35
2019-02-15T01:25:43.022Z,4.30
2019-02-15T01:28:22.061Z,4.35
2019-02-15T01:31:11.316Z,4.38
2019-02-15T01:33:49.096Z,4.39
2019-02-15T01:36:38.348Z,4.35
2019-02-15T01:39:30.633Z,4.35
2019-02-15T01:42:09.317Z,4.34
2019-02-15T01:44:49.721Z,4.36
2019-02-15T01:47:23.996Z,4.35
2019-02-15T01:49:54.637Z,4.36
2019-02-15T01:52:25.527Z,4.33
2019-02-15T01:54:55.966Z,4.34
2019-02-15T01:57:26.247Z,4.31
2019-02-15T01:59:56.779Z,4.28
2019-02-15T02:02:29.036Z,4.25
2019-02-15T02:04:59.409Z,4.20
2019-02-15T02:07:30.551Z,4.19
2019-02-15T02:10:03.050Z,4.21
2019-02-15T02:12:33.720Z,4.17
2019-02-15T02:15:04.972Z,4.15
2019-02-15T02:17:35.376Z,4.14
2019-02-15T02:20:06.830Z,4.13
2019-02-15T02:22:37.204Z,4.02
2019-02-15T02:25:07.919Z,4.00
2019-02-15T02:27:40.197Z,3.94
2019-02-15T02:30:11.944Z,3.94
2019-02-15T02:32:42.276Z,3.94
2019-02-15T02:35:12.678Z,3.96
2019-02-15T02:37:43.025Z,3.98
2019-02-15T02:40:13.561Z,4.01
2019-02-15T02:42:44.051Z,4.01
2019-02-15T02:45:14.336Z,4.00
2019-02-15T02:47:44.609Z,3.97
2019-02-15T02:50:14.986Z,3.93
2019-02-15T02:52:45.373Z,3.89
2019-02-15T02:55:15.674Z,3.83
2019-02-15T02:57:47.962Z,3.77
2019-02-15T03:00:18.510Z,3.70
2019-02-15T03:02:48.805Z,3.67
2019-02-15T03:05:19.480Z,3.67
2019-02-15T03:07:50.914Z,3.65
2019-02-15T03:10:21.759Z,3.63
2019-02-15T03:12:58.849Z,3.60
2019-02-15T03:15:29.197Z,3.58
2019-02-15T03:17:59.520Z,3.53
2019-02-15T03:20:31.575Z,3.52
2019-02-15T03:23:03.044Z,3.48
2019-02-15T03:25:39.401Z,3.51
2019-02-15T03:28:09.999Z,3.51
2019-02-15T03:30:40.814Z,3.47
2019-02-15T03:33:11.657Z,3.48
2019-02-15T03:35:54.277Z,3.50
2019-02-15T03:38:33.786Z,3.48
2019-02-15T03:41:05.458Z,3.45
2019-02-15T03:43:35.827Z,3.41
2019-02-15T03:46:06.196Z,3.36
2019-02-15T03:48:36.474Z,3.35
2019-02-15T03:51:07.824Z,3.36
2019-02-15T03:53:38.414Z,3.38
2019-02-15T03:56:08.699Z,3.38
2019-02-15T03:58:39.516Z,3.43
2019-02-15T04:01:10.783Z,3.45
2019-02-15T04:03:41.173Z,3.46
2019-02-15T04:06:11.446Z,3.50
2019-02-15T04:08:41.823Z,3.53
2019-02-15T04:11:12.155Z,3.50
2019-02-15T04:13:42.469Z,3.42
2019-02-15T04:16:12.679Z,3.44
2019-02-15T04:18:43.076Z,3.44
2019-02-15T04:21:13.812Z,3.44
2019-02-15T04:23:44.580Z,3.44
2019-02-15T04:26:14.981Z,3.43
2019-02-15T04:28:45.247Z,3.41
2019-02-15T04:31:15.559Z,3.35
2019-02-15T04:33:45.773Z,3.34
2019-02-15T04:36:15.999Z,3.35
2019-02-15T04:38:46.337Z,3.38
2019-02-15T04:41:16.720Z,3.40
2019-02-15T04:43:47.048Z,3.44
2019-02-15T04:46:17.504Z,3.46
2019-02-15T04:48:47.924Z,3.41
2019-02-15T04:51:18.244Z,3.43
2019-02-15T04:53:48.981Z,3.46
2019-02-15T04:56:19.204Z,3.43
2019-02-15T04:58:49.832Z,3.44
2019-02-15T05:01:20.160Z,3.43
2019-02-15T05:03:50.511Z,3.38
2019-02-15T05:06:20.742Z,3.35
2019-02-15T05:08:50.936Z,3.37
2019-02-15T05:11:23.442Z,3.36
2019-02-15T05:13:54.744Z,3.33
2019-02-15T05:16:24.985Z,3.34
2019-02-15T05:18:55.489Z,3.34
2019-02-15T05:21:25.850Z,3.29
2019-02-15T05:23:56.238Z,3.32
2019-02-15T05:26:26.623Z,3.36
2019-02-15T05:28:57.296Z,3.30
2019-02-15T05:31:28.019Z,3.29
2019-02-15T05:33:58.282Z,3.25
2019-02-15T05:36:28.701Z,3.24
2019-02-15T05:39:00.083Z,3.28
2019-02-15T05:41:30.703Z,3.30
2019-02-15T05:44:00.934Z,3.31
2019-02-15T05:46:31.287Z,3.32
2019-02-15T05:49:02.006Z,3.32
2019-02-15T05:51:32.274Z,3.32
2019-02-15T05:54:03.583Z,3.28
2019-02-15T05:56:34.261Z,3.31
2019-02-15T05:59:04.715Z,3.22
2019-02-15T06:01:36.177Z,3.16
2019-02-15T06:04:06.781Z,3.23
2019-02-15T06:06:37.036Z,3.22
2019-02-15T06:09:07.602Z,3.25
2019-02-15T06:11:38.200Z,3.21
2019-02-15T06:14:08.510Z,3.21
2019-02-15T06:16:38.733Z,3.17
2019-02-15T06:19:09.305Z,3.17
2019-02-15T06:21:41.652Z,3.14
2019-02-15T06:24:12.120Z,3.18
2019-02-15T06:26:42.406Z,3.16
2019-02-15T06:29:13.187Z,3.20
2019-02-15T06:31:43.613Z,3.22
2019-02-15T06:34:14.231Z,3.19
2019-02-15T06:36:44.807Z,3.11
2019-02-15T06:39:15.192Z,3.17
2019-02-15T06:41:45.477Z,3.17
2019-02-15T06:44:16.073Z,3.19
2019-02-15T06:46:46.293Z,3.20
2019-02-15T06:49:16.576Z,3.23
2019-02-15T06:51:46.959Z,3.29
2019-02-15T06:54:17.353Z,3.35
2019-02-15T06:56:47.719Z,3.37
2019-02-15T06:59:34.856Z,3.39
2019-02-15T07:02:36.332Z,3.43
2019-02-15T07:05:20.407Z,3.40
2019-02-15T07:07:51.158Z,3.41
2019-02-15T07:10:21.812Z,3.33
2019-02-15T07:12:52.567Z,3.39
2019-02-15T07:15:23.257Z,3.24
2019-02-15T07:17:54.572Z,3.24
2019-02-15T07:20:25.035Z,3.36
2019-02-15T07:22:55.431Z,3.47
2019-02-15T07:25:25.695Z,3.56
2019-02-15T07:27:56.994Z,3.70
2019-02-15T07:30:27.387Z,3.85
2019-02-15T07:32:57.915Z,3.97
2019-02-15T07:35:28.236Z,4.06
2019-02-15T07:37:58.855Z,4.12
2019-02-15T07:40:29.072Z,4.17
2019-02-15T07:43:00.582Z,4.17
2019-02-15T07:45:32.200Z,4.00
2019-02-15T07:48:03.013Z,4.16
2019-02-15T07:50:33.362Z,4.07
2019-02-15T07:53:04.809Z,4.10
2019-02-15T07:55:35.050Z,4.21
2019-02-15T07:58:05.682Z,4.34
2019-02-15T08:00:36.095Z,4.37
2019-02-15T08:03:06.386Z,4.43
2019-02-15T08:05:36.654Z,4.53
2019-02-15T08:08:08.107Z,4.59
2019-02-15T08:10:39.533Z,4.58
2019-02-15T08:13:09.964Z,4.66
2019-02-15T08:15:40.283Z,4.60
2019-02-15T08:18:10.767Z,4.79
2019-02-15T08:20:41.090Z,4.87
2019-02-15T08:23:11.340Z,4.96
2019-02-15T08:25:41.633Z,5.13
2019-02-15T08:28:11.958Z,5.32
2019-02-15T08:30:42.441Z,5.42
2019-02-15T08:33:13.072Z,5.52
2019-02-15T08:35:43.321Z,5.69
2019-02-15T08:38:13.973Z,5.79
2019-02-15T08:40:44.274Z,5.86
2019-02-15T08:43:14.572Z,6.06
2019-02-15T08:45:44.894Z,6.32
2019-02-15T08:48:15.176Z,7.08
2019-02-15T08:50:46.548Z,7.97
2019-02-15T08:53:16.916Z,9.12
2019-02-15T08:55:47.395Z,9.55
2019-02-15T08:58:18.076Z,10.11
2019-02-15T09:00:48.724Z,10.83
2019-02-15T09:03:19.104Z,11.20
2019-02-15T09:05:50.761Z,11.52
2019-02-15T09:08:21.715Z,12.17
2019-02-15T09:10:52.004Z,14.07
2019-02-15T09:13:22.481Z,14.07
2019-02-15T09:15:53.010Z,14.84
2019-02-15T09:18:23.645Z,15.59
2019-02-15T09:20:54.018Z,16.28
2019-02-15T09:23:24.389Z,16.58
2019-02-15T09:25:55.740Z,16.38
2019-02-15T09:28:30.491Z,16.76
2019-02-15T09:31:01.049Z,16.42
2019-02-15T09:33:32.455Z,16.38
2019-02-15T09:36:02.748Z,16.10
2019-02-15T09:38:33.018Z,15.39
2019-02-15T09:41:03.334Z,15.41
2019-02-15T09:43:34.060Z,15.26
2019-02-15T09:46:04.432Z,15.74
2019-02-15T09:48:34.713Z,16.84
2019-02-15T09:51:07.181Z,17.16
2019-02-15T09:53:37.531Z,17.78
2019-02-15T09:56:07.879Z,17.49
2019-02-15T09:58:38.601Z,18.36
2019-02-15T10:01:09.074Z,18.28
2019-02-15T10:03:39.549Z,19.00
2019-02-15T10:06:10.356Z,19.52
2019-02-15T10:08:41.712Z,20.44
2019-02-15T10:11:12.059Z,21.09
2019-02-15T10:13:42.555Z,20.85
2019-02-15T10:16:12.959Z,20.04
2019-02-15T10:18:43.934Z,20.54
2019-02-15T10:21:14.416Z,20.12
2019-02-15T10:23:45.211Z,19.19
2019-02-15T10:26:15.952Z,19.80
2019-02-15T10:28:46.859Z,19.97
2019-02-15T10:31:17.284Z,19.67
2019-02-15T10:33:47.638Z,19.07
2019-02-15T10:36:18.987Z,19.16
2019-02-15T10:38:49.276Z,18.88
2019-02-15T10:41:19.516Z,18.61
2019-02-15T10:43:50.374Z,18.85
2019-02-15T10:46:21.924Z,19.18
2019-02-15T10:48:52.172Z,19.10
2019-02-15T10:51:22.537Z,18.94
2019-02-15T10:53:52.839Z,18.92
2019-02-15T10:56:23.105Z,18.56
2019-02-15T10:58:53.421Z,18.64
2019-02-15T11:01:23.846Z,18.54
2019-02-15T11:03:57.607Z,18.64
2019-02-15T11:06:27.981Z,18.88
2019-02-15T11:08:58.611Z,18.53
2019-02-15T11:11:28.927Z,18.52
2019-02-15T11:13:59.477Z,18.37
2019-02-15T11:16:29.885Z,18.55
2019-02-15T11:19:00.133Z,18.49
2019-02-15T11:21:30.398Z,18.23
2019-02-15T11:24:01.780Z,18.18
2019-02-15T11:26:32.017Z,18.21
2019-02-15T11:29:02.266Z,17.93
2019-02-15T11:31:32.986Z,18.01
2019-02-15T11:34:03.295Z,17.85
2019-02-15T11:36:33.815Z,17.68
2019-02-15T11:39:04.761Z,17.33
2019-02-15T11:41:35.012Z,17.00
2019-02-15T11:44:05.729Z,16.36
2019-02-15T11:46:36.012Z,15.68
2019-02-15T11:49:06.303Z,15.02
2019-02-15T11:51:36.901Z,14.63
2019-02-15T11:54:07.390Z,14.32
2019-02-15T11:56:37.889Z,14.01
2019-02-15T11:59:08.174Z,13.83
2019-02-15T12:01:38.612Z,13.67
2019-02-15T12:04:10.974Z,13.52
2019-02-15T12:06:41.437Z,13.55
2019-02-15T12:09:12.100Z,13.53
2019-02-15T12:11:42.496Z,13.53
2019-02-15T12:14:12.945Z,13.58
2019-02-15T12:16:45.370Z,13.53
2019-02-15T12:19:15.652Z,13.53
2019-02-15T12:21:45.843Z,13.55
2019-02-15T12:24:17.110Z,13.72
2019-02-15T12:26:47.475Z,13.90
2019-02-15T12:29:18.379Z,14.03
2019-02-15T12:31:48.649Z,14.11
2019-02-15T12:34:19.006Z,14.20
2019-02-15T12:36:49.331Z,14.28
2019-02-15T12:39:20.109Z,14.32
2019-02-15T12:41:50.415Z,14.37
2019-02-15T12:44:21.839Z,14.41
2019-02-15T12:46:52.045Z,14.37
2019-02-15T12:49:22.566Z,14.46
2019-02-15T12:51:54.642Z,14.38
2019-02-15T12:54:24.954Z,14.40
2019-02-15T12:56:57.195Z,14.47
2019-02-15T12:59:27.779Z,14.53
2019-02-15T13:01:58.454Z,14.57
2019-02-15T13:04:29.305Z,14.54
2019-02-15T13:07:00.188Z,14.52
2019-02-15T13:09:31.009Z,14.46
2019-02-15T13:12:03.345Z,14.44
2019-02-15T13:14:34.062Z,14.51
2019-02-15T13:17:06.047Z,14.56
2019-02-15T13:19:39.177Z,14.57
2019-02-15T13:22:09.610Z,14.57
2019-02-15T13:24:40.010Z,14.55
2019-02-15T13:27:12.140Z,14.62
2019-02-15T13:29:42.706Z,14.60
2019-02-15T13:32:13.097Z,14.64
2019-02-15T13:34:43.628Z,14.55
2019-02-15T13:37:14.031Z,14.58
2019-02-15T13:39:44.394Z,14.67
2019-02-15T13:42:14.809Z,14.70
2019-02-15T13:44:45.430Z,14.72
2019-02-15T13:47:16.246Z,14.64
2019-02-15T13:49:47.053Z,14.64
2019-02-15T13:52:17.611Z,14.66
2019-02-15T13:54:49.336Z,14.72
2019-02-15T13:57:19.586Z,14.77
2019-02-15T13:59:51.932Z,14.85
2019-02-15T14:02:22.249Z,14.76
2019-02-15T14:04:52.620Z,14.79
2019-02-15T14:07:23.028Z,14.86
2019-02-15T14:09:53.723Z,14.80
2019-02-15T14:12:23.961Z,14.66
2019-02-15T14:14:54.607Z,14.65
2019-02-15T14:17:25.205Z,14.60
2019-02-15T14:19:55.458Z,14.63
2019-02-15T14:22:26.450Z,14.57
2019-02-15T14:24:56.779Z,14.55
2019-02-15T14:27:27.075Z,14.52
2019-02-15T14:29:57.584Z,14.48
2019-02-15T14:32:29.479Z,14.46
2019-02-15T14:34:59.875Z,14.38
2019-02-15T14:37:30.233Z,14.40
2019-02-15T14:40:00.731Z,14.41
2019-02-15T14:42:31.052Z,14.38
2019-02-15T14:45:01.456Z,14.31
2019-02-15T14:47:32.123Z,14.21
2019-02-15T14:50:02.492Z,14.17
2019-02-15T14:52:32.864Z,14.13
2019-02-15T14:55:03.388Z,14.13
2019-02-15T14:57:34.022Z,14.07
2019-02-15T15:00:04.969Z,13.97
2019-02-15T15:02:35.263Z,13.96
2019-02-15T15:05:06.644Z,13.89
2019-02-15T15:07:36.993Z,13.89
2019-02-15T15:10:08.416Z,13.90
2019-02-15T15:12:38.933Z,13.89
2019-02-15T15:15:11.665Z,13.84
2019-02-15T15:17:42.253Z,13.82
2019-02-15T15:20:12.842Z,13.84
2019-02-15T15:22:44.443Z,13.84
2019-02-15T15:25:14.883Z,13.82
2019-02-15T15:27:45.159Z,13.79
2019-02-15T15:30:15.949Z,13.77
2019-02-15T15:32:46.508Z,13.75
2019-02-15T15:35:16.977Z,13.77
2019-02-15T15:37:47.622Z,13.76
2019-02-15T15:40:19.228Z,13.76
2019-02-15T15:42:50.012Z,13.74
2019-02-15T15:45:20.740Z,13.74
2019-02-15T15:47:51.387Z,13.80
2019-02-15T15:50:21.739Z,13.78
2019-02-15T15:52:52.934Z,13.76
2019-02-15T15:55:23.837Z,13.67
2019-02-15T15:57:54.656Z,13.59
2019-02-15T16:00:26.263Z,13.52
2019-02-15T16:02:57.790Z,13.51
2019-02-15T16:05:29.168Z,13.42
2019-02-15T16:07:59.772Z,13.42
2019-02-15T16:10:30.184Z,13.38
2019-02-15T16:13:01.205Z,13.31
2019-02-15T16:15:31.626Z,13.29
2019-02-15T16:18:02.173Z,13.21
2019-02-15T16:20:32.672Z,13.14
2019-02-15T16:23:03.540Z,13.10
2019-02-15T16:25:33.924Z,13.10
2019-02-15T16:28:04.756Z,12.98
2019-02-15T16:30:35.565Z,12.85
2019-02-15T16:33:06.348Z,12.85
2019-02-15T16:35:36.877Z,12.79
2019-02-15T16:38:07.264Z,12.79
2019-02-15T16:40:38.735Z,12.66
2019-02-15T16:43:09.179Z,12.66
2019-02-15T16:45:39.517Z,12.54
2019-02-15T16:48:09.999Z,12.54
2019-02-15T16:50:42.200Z,12.45
2019-02-15T16:53:13.126Z,12.45
2019-02-15T16:55:43.562Z,12.40
2019-02-15T16:58:16.068Z,12.35
2019-02-15T17:00:46.546Z,12.26
2019-02-15T17:03:19.042Z,12.07
2019-02-15T17:05:49.328Z,12.07
2019-02-15T17:08:19.674Z,11.95
2019-02-15T17:10:50.284Z,11.90
2019-02-15T17:13:20.763Z,11.83
2019-02-15T17:15:53.384Z,11.83
2019-02-15T17:18:27.168Z,11.83
2019-02-15T17:20:57.877Z,11.87
2019-02-15T17:23:29.710Z,11.87
2019-02-15T17:26:02.618Z,11.87
2019-02-15T17:28:34.172Z,11.87
2019-02-15T17:31:04.813Z,11.85
2019-02-15T17:33:35.439Z,11.82
2019-02-15T17:36:06.498Z,11.87
2019-02-15T17:38:38.661Z,11.84
2019-02-15T17:41:10.155Z,11.85
2019-02-15T17:43:43.503Z,11.88
2019-02-15T17:46:19.113Z,11.85
2019-02-15T17:48:50.818Z,11.84
2019-02-15T17:51:27.948Z,11.77
2019-02-15T17:53:57.820Z,11.78
2019-02-15T17:56:29.623Z,11.75
2019-02-15T17:59:01.165Z,11.69
2019-02-15T18:01:32.512Z,11.63
2019-02-15T18:04:03.863Z,11.52
2019-02-15T18:06:35.318Z,11.52
2019-02-15T18:09:06.361Z,11.53
2019-02-15T18:11:36.929Z,11.54
2019-02-15T18:14:07.254Z,11.59
2019-02-15T18:16:38.416Z,11.62
2019-02-15T18:19:10.295Z,11.66
2019-02-15T18:21:40.745Z,11.68
2019-02-15T18:24:11.365Z,11.70
2019-02-15T18:26:42.056Z,11.67
2019-02-15T18:29:12.820Z,11.67
2019-02-15T18:31:43.461Z,11.69
2019-02-15T18:34:13.867Z,11.71
2019-02-15T18:36:44.541Z,11.69
2019-02-15T18:39:16.077Z,11.67
2019-02-15T18:41:47.380Z,11.63
2019-02-15T18:44:17.857Z,11.59
2019-02-15T18:46:49.227Z,11.53
2019-02-15T18:49:21.605Z,11.50
2019-02-15T18:51:54.437Z,11.47
2019-02-15T18:54:27.013Z,11.44
2019-02-15T18:56:59.457Z,11.41
2019-02-15T18:59:34.291Z,11.33
2019-02-15T19:02:05.115Z,11.31
2019-02-15T19:04:35.988Z,11.28
2019-02-15T19:07:06.540Z,11.25
2019-02-15T19:09:40.381Z,11.22
2019-02-15T19:12:17.581Z,11.21
2019-02-15T19:14:48.622Z,11.14
2019-02-15T19:17:19.139Z,11.10
2019-02-15T19:19:50.024Z,11.03
2019-02-15T19:22:20.936Z,11.01
2019-02-15T19:24:51.172Z,10.95
2019-02-15T19:27:21.977Z,10.92
2019-02-15T19:29:52.775Z,10.84
2019-02-15T19:32:23.445Z,10.76
2019-02-15T19:34:54.175Z,10.70
2019-02-15T19:37:25.703Z,10.64
2019-02-15T19:39:57.878Z,10.58
2019-02-15T19:42:28.341Z,10.57
2019-02-15T19:45:00.330Z,10.60
2019-02-15T19:47:30.596Z,10.60
2019-02-15T19:50:00.990Z,10.60
2019-02-15T19:52:31.283Z,10.55
2019-02-15T19:55:01.766Z,10.53
2019-02-15T19:57:32.666Z,10.52
2019-02-15T20:00:03.383Z,10.52
2019-02-15T20:02:33.792Z,10.54
2019-02-15T20:05:05.215Z,10.55
2019-02-15T20:07:35.478Z,10.50
2019-02-15T20:10:07.655Z,10.48
2019-02-15T20:12:38.307Z,10.45
2019-02-15T20:15:10.253Z,10.38
2019-02-15T20:17:40.619Z,10.35
2019-02-15T20:20:12.301Z,10.29
2019-02-15T20:22:42.691Z,10.24
2019-02-15T20:25:13.480Z,10.20
2019-02-15T20:27:43.975Z,10.12
2019-02-15T20:30:16.151Z,10.10
2019-02-15T20:32:46.496Z,10.08
2019-02-15T20:35:16.869Z,10.04
2019-02-15T20:37:47.330Z,9.99
2019-02-15T20:40:17.607Z,9.99
2019-02-15T20:42:48.225Z,9.96
2019-02-15T20:45:20.337Z,9.94
2019-02-15T20:47:52.057Z,9.90
2019-02-15T20:50:23.173Z,9.87
2019-02-15T20:52:53.986Z,9.87
2019-02-15T20:55:26.395Z,9.84
2019-02-15T20:57:57.606Z,9.85
2019-02-15T21:00:28.138Z,9.86
2019-02-15T21:02:58.537Z,9.82
2019-02-15T21:05:29.054Z,9.81
2019-02-15T21:07:59.357Z,9.79
2019-02-15T21:10:29.782Z,9.78
2019-02-15T21:13:00.191Z,9.79
2019-02-15T21:15:30.589Z,9.80
2019-02-15T21:18:01.355Z,9.81
2019-02-15T21:20:31.697Z,9.83
2019-02-15T21:23:01.985Z,9.84
2019-02-15T21:25:32.191Z,9.84
2019-02-15T21:28:02.602Z,9.86
2019-02-15T21:30:32.838Z,9.84
2019-02-15T21:33:03.396Z,9.87
2019-02-15T21:35:33.696Z,9.86
2019-02-15T21:38:04.434Z,9.80
2019-02-15T21:40:34.667Z,9.77
2019-02-15T21:43:05.985Z,9.74
2019-02-15T21:45:36.499Z,9.74
2019-02-15T21:48:06.864Z,9.72
2019-02-15T21:50:37.209Z,9.73
2019-02-15T21:53:08.801Z,9.71
2019-02-15T21:55:39.585Z,9.73
2019-02-15T21:58:10.472Z,9.70
2019-02-15T22:00:41.105Z,9.62
2019-02-15T22:03:11.606Z,9.62
2019-02-15T22:05:41.950Z,9.64
2019-02-15T22:08:12.382Z,9.59
2019-02-15T22:10:43.648Z,9.48
2019-02-15T22:13:14.156Z,9.47
2019-02-15T22:15:44.431Z,9.47
2019-02-15T22:18:14.741Z,9.42
2019-02-15T22:20:45.001Z,9.35
2019-02-15T22:23:15.374Z,9.32
2019-02-15T22:25:47.067Z,9.20
2019-02-15T22:28:18.280Z,9.17
2019-02-15T22:30:48.661Z,9.20
2019-02-15T22:33:19.055Z,9.22
2019-02-15T22:35:53.510Z,9.17
2019-02-15T22:38:24.839Z,9.15
2019-02-15T22:41:03.142Z,9.12
2019-02-15T22:43:34.454Z,9.10
2019-02-15T22:46:05.032Z,9.12
2019-02-15T22:48:36.045Z,9.14
2019-02-15T22:51:06.295Z,9.14
2019-02-15T22:53:36.722Z,9.16
2019-02-15T22:56:07.133Z,9.19
2019-02-15T22:58:37.854Z,9.21
2019-02-15T23:01:15.249Z,9.22
2019-02-15T23:03:46.583Z,9.07
2019-02-15T23:06:16.850Z,9.04
2019-02-15T23:08:47.211Z,9.12
2019-02-15T23:11:17.603Z,9.15
2019-02-15T23:13:48.228Z,9.11
2019-02-15T23:16:18.601Z,9.10
2019-02-15T23:18:50.094Z,9.10
2019-02-15T23:21:20.435Z,9.08
2019-02-15T23:23:50.845Z,9.03
2019-02-15T23:26:21.178Z,8.99
2019-02-15T23:28:51.579Z,8.99
2019-02-15T23:31:23.257Z,9.00
2019-02-15T23:33:53.516Z,8.96
2019-02-15T23:36:23.997Z,8.93
2019-02-15T23:38:54.424Z,8.93
2019-02-15T23:41:24.719Z,8.92
2019-02-15T23:43:54.951Z,8.90
2019-02-15T23:46:25.681Z,8.90
2019-02-15T23:48:56.647Z,8.89
2019-02-15T23:51:26.961Z,8.84
2019-02-15T23:53:57.698Z,8.81
2019-02-15T23:56:28.076Z,8.78
2019-02-15T23:58:59.154Z,8.74
